Time;durP1;ratioP1;P1;durP2;ratioP2;P2;SDS_P1;SDS_P2;PMS_P1;PMS_P2;Temp;Humidity;BMP_temperature;BMP_pressure;BME280_temperature;BME280_humidity;BME280_pressure;Samples;Min_cycle;Max_cycle;Signal;HPM_P1;HPM_P2
2022/04/21 00:01:38;;;;;;;7.90;7.10;;;10.20;1.00;;;;;;5097285;28;20704;-60
2022/04/21 00:04:04;;;;;;;8.43;7.53;;;10.30;1.00;;;;;;5100887;28;20437;-60
2022/04/21 00:06:29;;;;;;;7.40;6.70;;;10.30;1.00;;;;;;5104538;28;20225;-58
2022/04/21 00:08:55;;;;;;;7.53;6.87;;;12.70;1.00;;;;;;5105777;28;20197;-58
2022/04/21 00:11:21;;;;;;;8.60;7.80;;;10.20;1.00;;;;;;5103380;28;20218;-59
2022/04/21 00:13:47;;;;;;;8.07;7.27;;;10.30;1.00;;;;;;5113478;28;20281;-60
2022/04/21 00:16:12;;;;;;;8.53;7.63;;;10.20;1.00;;;;;;5111119;28;20551;-59
2022/04/21 00:18:39;;;;;;;7.60;6.90;;;10.20;1.00;;;;;;5109882;28;20182;-59
2022/04/21 00:21:05;;;;;;;7.97;7.23;;;10.20;1.00;;;;;;5112254;28;20190;-59
2022/04/21 00:23:33;;;;;;;8.83;7.93;;;10.20;1.00;;;;;;5098551;28;20454;-59
2022/04/21 00:26:01;;;;;;;9.03;7.30;;;10.30;1.00;;;;;;5107566;27;20450;-60
2022/04/21 00:28:29;;;;;;;8.40;7.07;;;10.40;1.00;;;;;;5103010;28;20471;-59
2022/04/21 00:30:55;;;;;;;7.90;7.10;;;10.40;1.00;;;;;;5101947;28;20433;-59
2022/04/21 00:33:21;;;;;;;7.50;6.80;;;10.40;1.00;;;;;;5098687;28;20456;-60
2022/04/21 00:35:47;;;;;;;8.77;6.70;;;10.50;1.00;;;;;;5107937;28;20448;-60
2022/04/21 00:38:13;;;;;;;9.07;8.17;;;10.40;1.00;;;;;;5103051;28;20213;-58
2022/04/21 00:40:39;;;;;;;8.27;7.40;;;10.30;1.00;;;;;;5104994;28;20182;-60
2022/04/21 00:43:05;;;;;;;10.60;7.60;;;10.30;1.00;;;;;;5109952;28;20555;-60
2022/04/21 00:45:32;;;;;;;8.07;7.37;;;13.80;1.00;;;;;;5100562;28;20174;-60
2022/04/21 00:47:58;;;;;;;8.80;7.90;;;10.30;1.00;;;;;;5103250;28;20505;-59
2022/04/21 00:50:29;;;;;;;9.43;8.40;;;10.30;1.00;;;;;;5108001;28;22752;-61
2022/04/21 00:52:56;;;;;;;12.47;8.30;;;10.30;1.00;;;;;;5104002;28;20451;-59
2022/04/21 00:55:22;;;;;;;11.13;8.07;;;;;;;;;;5098163;28;20496;-59
2022/04/21 00:57:50;;;;;;;10.67;9.53;;;10.30;1.00;;;;;;5106839;28;21102;-59
2022/04/21 01:00:16;;;;;;;10.20;8.73;;;10.40;1.00;;;;;;5098011;28;20455;-59
2022/04/21 01:02:55;;;;;;;10.10;8.67;;;10.30;1.00;;;;;;5099937;28;20543;-59
2022/04/21 01:05:28;;;;;;;9.90;8.90;;;10.30;1.00;;;;;;5102734;28;20563;-60
2022/04/21 01:07:54;;;;;;;10.97;9.17;;;;;;;;;;5097334;28;20456;-58
2022/04/21 01:10:20;;;;;;;13.67;9.50;;;10.10;1.00;;;;;;5097216;28;20448;-59
2022/04/21 01:12:47;;;;;;;10.70;9.57;;;10.30;1.00;;;;;;5097174;28;20514;-59
2022/04/21 01:15:12;;;;;;;12.00;9.80;;;10.30;1.00;;;;;;5092024;28;20182;-60
2022/04/21 01:17:39;;;;;;;10.33;9.30;;;10.30;1.00;;;;;;5100541;28;20984;-60
2022/04/21 01:20:07;;;;;;;15.47;9.60;;;10.30;1.00;;;;;;5109092;28;20190;-59
2022/04/21 01:22:33;;;;;;;10.20;9.20;;;10.40;1.00;;;;;;5103747;28;20997;-58
2022/04/21 01:24:58;;;;;;;11.30;9.30;;;10.40;1.00;;;;;;5095913;28;20521;-59
2022/04/21 01:27:27;;;;;;;14.60;10.20;;;10.50;1.00;;;;;;5105096;28;20188;-60
2022/04/21 01:29:53;;;;;;;11.03;9.67;;;10.50;1.00;;;;;;5095145;28;20217;-59
2022/04/21 01:32:19;;;;;;;11.00;8.63;;;10.50;1.00;;;;;;5091503;28;20460;-59
2022/04/21 01:34:44;;;;;;;11.20;10.07;;;9.90;1.00;;;;;;5103679;28;20455;-60
2022/04/21 01:42:39;;;;;;;10.83;9.70;;;10.50;1.00;;;;;;5093422;28;20494;-60
2022/04/21 01:45:05;;;;;;;11.00;9.10;;;10.30;1.00;;;;;;5103441;28;20444;-59
2022/04/21 01:47:30;;;;;;;11.13;10.03;;;;;;;;;;5091352;28;20263;-59
2022/04/21 01:49:56;;;;;;;10.47;9.40;;;10.40;1.00;;;;;;5105120;28;20535;-58
2022/04/21 01:52:21;;;;;;;11.13;10.03;;;10.40;1.00;;;;;;5098316;28;20475;-59
2022/04/21 01:54:50;;;;;;;10.30;8.70;;;10.20;1.00;;;;;;5102174;28;20201;-60
2022/04/21 01:57:18;;;;;;;11.43;10.33;;;10.20;1.00;;;;;;5094339;28;20224;-59
2022/04/21 01:59:43;;;;;;;11.37;10.13;;;10.10;1.00;;;;;;5099332;27;20454;-59
2022/04/21 02:02:09;;;;;;;12.97;11.57;;;10.20;1.00;;;;;;5101661;28;20519;-60
2022/04/21 02:04:34;;;;;;;11.63;9.60;;;10.30;1.00;;;;;;5099847;28;20210;-58
2022/04/21 02:07:00;;;;;;;12.20;11.00;;;10.40;1.00;;;;;;5094820;28;20758;-58
2022/04/21 02:09:25;;;;;;;13.80;9.80;;;10.30;1.00;;;;;;5096729;28;20198;-58
2022/04/21 02:11:51;;;;;;;11.20;9.90;;;10.20;1.00;;;;;;5102204;28;20255;-59
2022/04/21 02:14:16;;;;;;;11.80;10.03;;;10.30;1.00;;;;;;5096132;28;20196;-58
2022/04/21 02:16:42;;;;;;;13.13;10.37;;;10.00;1.00;;;;;;5096089;28;20256;-58
2022/04/21 02:19:07;;;;;;;11.77;9.37;;;8.50;1.00;;;;;;5101430;28;20190;-59
2022/04/21 02:21:33;;;;;;;15.77;10.03;;;10.00;1.00;;;;;;5105777;28;20191;-59
2022/04/21 02:23:58;;;;;;;12.20;10.30;;;10.00;1.00;;;;;;5097166;28;20189;-58
2022/04/21 02:26:24;;;;;;;11.27;10.10;;;10.00;1.00;;;;;;5091136;28;20286;-59
2022/04/21 02:28:49;;;;;;;14.17;10.17;;;10.00;1.00;;;;;;5087420;28;20605;-57
2022/04/21 02:31:15;;;;;;;10.60;9.50;;;10.10;1.00;;;;;;5091661;28;20190;-58
2022/04/21 02:33:40;;;;;;;10.27;9.17;;;10.10;1.00;;;;;;5089321;28;20205;-59
2022/04/21 02:36:06;;;;;;;18.20;10.20;;;10.10;1.00;;;;;;5087991;28;20221;-59
2022/04/21 02:38:31;;;;;;;13.00;10.60;;;10.10;1.00;;;;;;5090106;28;20201;-58
2022/04/21 02:40:57;;;;;;;11.27;9.43;;;10.00;1.00;;;;;;5103239;28;20261;-58
2022/04/21 02:43:22;;;;;;;12.07;10.80;;;10.00;1.00;;;;;;5108689;28;20274;-59
2022/04/21 02:45:48;;;;;;;12.50;11.20;;;9.80;1.00;;;;;;5108365;28;20204;-60
2022/04/21 02:48:14;;;;;;;10.77;9.67;;;7.20;1.00;;;;;;5106980;28;20190;-60
2022/04/21 02:50:41;;;;;;;10.70;9.70;;;9.90;1.00;;;;;;5106611;28;20182;-60
2022/04/21 02:53:07;;;;;;;11.97;9.63;;;9.90;1.00;;;;;;5105585;28;20456;-58
2022/04/21 02:58:19;;;;;;;13.53;10.17;;;10.10;1.00;;;;;;5103113;28;21004;-59
2022/04/21 03:00:45;;;;;;;16.37;12.20;;;10.20;1.00;;;;;;5105332;28;20451;-59
2022/04/21 03:03:11;;;;;;;11.60;10.40;;;10.20;1.00;;;;;;5104372;28;20443;-58
2022/04/21 03:05:36;;;;;;;14.40;10.37;;;10.20;1.00;;;;;;5108130;28;20256;-58
2022/04/21 03:08:02;;;;;;;18.50;12.20;;;10.10;1.00;;;;;;5102994;28;20198;-60
2022/04/21 03:10:27;;;;;;;23.07;13.27;;;10.00;1.00;;;;;;5108691;28;20306;-59
2022/04/21 03:12:53;;;;;;;18.67;12.80;;;10.10;1.00;;;;;;5103232;28;20240;-58
2022/04/21 03:15:18;;;;;;;18.13;13.90;;;10.00;1.00;;;;;;5103446;28;20186;-59
2022/04/21 03:17:44;;;;;;;23.17;13.77;;;10.10;1.00;;;;;;5102863;28;20304;-59
2022/04/21 03:24:18;;;;;;;19.67;13.83;;;10.10;1.00;;;;;;5091581;28;20200;-58
2022/04/21 03:25:40;;;;;;;25.40;15.40;;;10.10;1.00;;;;;;5092834;28;20999;-58
2022/04/21 03:28:05;;;;;;;22.37;14.00;;;10.10;1.00;;;;;;5102398;28;20443;-58
2022/04/21 03:30:31;;;;;;;17.37;14.47;;;10.00;1.00;;;;;;5111751;28;20231;-59
2022/04/21 03:32:56;;;;;;;20.43;15.03;;;10.00;1.00;;;;;;5106306;28;20185;-59
2022/04/21 03:35:23;;;;;;;25.77;15.97;;;10.00;1.00;;;;;;5109255;28;20186;-59
2022/04/21 03:37:48;;;;;;;21.50;14.73;;;9.90;1.00;;;;;;5104273;28;20253;-59
2022/04/21 03:40:14;;;;;;;21.43;15.30;;;9.90;1.00;;;;;;5105736;28;20447;-59
2022/04/21 03:42:40;;;;;;;29.73;16.90;;;10.00;1.00;;;;;;5103263;28;20182;-59
2022/04/21 03:45:06;;;;;;;31.50;16.33;;;10.00;1.00;;;;;;5100076;28;20178;-59
2022/04/21 03:47:31;;;;;;;27.90;15.40;;;10.00;1.00;;;;;;5103547;28;20276;-60
2022/04/21 03:49:57;;;;;;;29.50;16.67;;;9.80;1.00;;;;;;5102707;28;20530;-59
2022/04/21 03:52:23;;;;;;;33.00;16.87;;;9.80;12.30;;;;;;5109577;28;20194;-59
2022/04/21 03:54:48;;;;;;;32.67;19.00;;;9.80;51.00;;;;;;5105593;28;20190;-59
2022/04/21 03:57:14;;;;;;;30.53;15.70;;;9.80;50.90;;;;;;5105631;28;20210;-59
2022/04/21 03:59:39;;;;;;;27.10;15.90;;;9.80;56.50;;;;;;5104865;28;20280;-59
2022/04/21 04:02:05;;;;;;;33.43;17.80;;;9.70;86.50;;;;;;5103586;28;20193;-60
2022/04/21 04:04:35;;;;;;;28.50;16.70;;;9.80;99.90;;;;;;5103765;28;20237;-60
2022/04/21 04:12:35;;;;;;;34.37;17.73;;;9.80;99.90;;;;;;5107153;28;20488;-58
2022/04/21 04:15:01;;;;;;;30.90;16.30;;;9.90;99.90;;;;;;5104146;28;20454;-58
2022/04/21 04:17:27;;;;;;;28.00;16.40;;;9.90;99.90;;;;;;5099625;28;20575;-60
2022/04/21 04:19:53;;;;;;;32.97;15.53;;;9.80;99.90;;;;;;5104556;28;20602;-59
2022/04/21 04:22:19;;;;;;;26.13;16.23;;;9.90;99.90;;;;;;5110839;28;20182;-60
2022/04/21 04:24:45;;;;;;;30.67;17.53;;;9.90;99.90;;;;;;5103665;28;20468;-60
2022/04/21 04:27:11;;;;;;;27.33;17.43;;;9.80;99.90;;;;;;5103925;28;20257;-60
2022/04/21 04:29:37;;;;;;;28.07;17.67;;;9.80;99.90;;;;;;5104632;28;20463;-59
2022/04/21 04:32:03;;;;;;;27.87;17.10;;;9.80;99.90;;;;;;5105384;28;20439;-59
2022/04/21 04:34:28;;;;;;;23.47;17.40;;;;;;;;;;5104171;28;20248;-57
2022/04/21 04:36:54;;;;;;;30.37;19.27;;;9.70;99.90;;;;;;5102566;28;20505;-59
2022/04/21 04:39:20;;;;;;;30.73;18.20;;;9.70;99.90;;;;;;5105023;28;20455;-58
2022/04/21 04:44:29;;;;;;;30.03;17.57;;;9.80;99.90;;;;;;5104916;28;20188;-57
2022/04/21 04:46:55;;;;;;;31.10;18.70;;;9.80;99.90;;;;;;5104987;28;20531;-57
2022/04/21 04:49:21;;;;;;;32.77;17.60;;;9.80;99.90;;;;;;5103602;28;20270;-57
2022/04/21 04:51:47;;;;;;;26.40;16.37;;;;;;;;;;5105758;28;20833;-58
2022/04/21 04:54:14;;;;;;;30.50;16.57;;;9.70;99.90;;;;;;5107356;28;20193;-56
2022/04/21 04:56:41;;;;;;;33.20;17.30;;;9.80;99.90;;;;;;5102018;28;20828;-57
2022/04/21 04:59:07;;;;;;;24.70;16.10;;;9.70;99.90;;;;;;5100145;28;20843;-59
2022/04/21 05:01:41;;;;;;;32.17;17.47;;;9.80;99.90;;;;;;5103747;28;20440;-58
2022/04/21 05:04:32;;;;;;;36.00;17.20;;;9.80;99.90;;;;;;5107570;28;20238;-58
2022/04/21 05:06:59;;;;;;;24.90;15.63;;;9.90;99.90;;;;;;5098176;28;20449;-58
2022/04/21 05:09:25;;;;;;;28.40;14.80;;;;;;;;;;5094767;28;20448;-58
2022/04/21 05:11:55;;;;;;;33.37;18.17;;;10.00;99.90;;;;;;5099410;28;21200;-59
2022/04/21 05:14:23;;;;;;;24.03;15.70;;;10.00;99.90;;;;;;5099246;28;20456;-58
2022/04/21 05:16:49;;;;;;;30.53;16.20;;;9.90;99.90;;;;;;5106792;28;20467;-58
2022/04/21 05:19:17;;;;;;;30.43;17.10;;;10.10;99.90;;;;;;5105282;28;21058;-58
2022/04/21 05:21:44;;;;;;;28.57;16.83;;;10.10;99.90;;;;;;5099916;28;20445;-58
2022/04/21 05:24:11;;;;;;;31.60;18.30;;;10.10;99.90;;;;;;5097013;28;20443;-58
2022/04/21 05:26:37;;;;;;;30.50;18.30;;;10.00;99.90;;;;;;5102114;28;20444;-58
2022/04/21 05:31:53;;;;;;;31.03;16.83;;;10.10;99.90;;;;;;5111450;28;20439;-58
2022/04/21 05:34:19;;;;;;;28.90;15.90;;;10.10;99.90;;;;;;5102291;28;20439;-58
2022/04/21 05:36:45;;;;;;;25.67;15.03;;;10.30;99.90;;;;;;5098441;28;20456;-59
2022/04/21 05:39:11;;;;;;;32.70;18.17;;;10.30;99.90;;;;;;5099320;28;20186;-58
2022/04/21 05:41:37;;;;;;;25.97;16.63;;;10.40;99.90;;;;;;5106538;28;20206;-58
2022/04/21 05:44:04;;;;;;;27.23;17.90;;;10.40;96.50;;;;;;5102484;28;20475;-57
2022/04/21 05:46:29;;;;;;;30.00;16.90;;;10.30;92.50;;;;;;5093590;28;20175;-59
2022/04/21 05:48:55;;;;;;;33.67;17.10;;;10.30;92.80;;;;;;5108090;28;20451;-58
2022/04/21 05:51:21;;;;;;;29.60;16.60;;;10.30;96.00;;;;;;5094567;28;20682;-57
2022/04/21 05:53:48;;;;;;;31.37;17.00;;;10.30;96.10;;;;;;5091049;28;20186;-60
2022/04/21 05:56:14;;;;;;;34.47;18.60;;;;;;;;;;5099890;28;20191;-58
2022/04/21 05:58:40;;;;;;;33.77;17.50;;;10.30;95.00;;;;;;5097781;28;20441;-58
2022/04/21 06:01:08;;;;;;;34.67;17.93;;;10.30;97.20;;;;;;5104129;28;20947;-58
2022/04/21 06:03:35;;;;;;;29.03;16.10;;;10.30;97.80;;;;;;5105687;28;20181;-58
2022/04/21 06:06:00;;;;;;;31.33;18.90;;;10.50;83.60;;;;;;5097655;28;20982;-58
2022/04/21 06:08:26;;;;;;;32.40;17.33;;;10.50;60.20;;;;;;5100021;28;20452;-58
2022/04/21 06:10:51;;;;;;;28.40;17.17;;;10.40;46.80;;;;;;5100747;28;20206;-58
2022/04/21 06:13:18;;;;;;;30.37;17.70;;;10.30;53.10;;;;;;5105851;28;20201;-57
2022/04/21 06:15:43;;;;;;;35.73;18.70;;;10.30;63.50;;;;;;5102369;28;20551;-58
2022/04/21 06:18:09;;;;;;;35.17;17.43;;;10.40;76.50;;;;;;5101818;28;20483;-57
2022/04/21 06:20:35;;;;;;;31.57;18.77;;;10.40;54.80;;;;;;5105430;28;20218;-56
2022/04/21 06:23:01;;;;;;;32.67;17.37;;;;;;;;;;5099841;28;20496;-58
2022/04/21 06:25:27;;;;;;;30.13;16.93;;;10.50;56.40;;;;;;5103195;28;20174;-57
2022/04/21 06:27:53;;;;;;;26.60;16.63;;;10.40;47.30;;;;;;5106751;28;20456;-56
2022/04/21 06:30:19;;;;;;;27.53;16.43;;;10.30;54.80;;;;;;5102860;28;20228;-58
2022/04/21 06:32:45;;;;;;;27.30;17.00;;;10.20;52.10;;;;;;5097026;28;20190;-58
2022/04/21 06:35:11;;;;;;;28.73;17.80;;;10.20;55.10;;;;;;5106583;28;20450;-58
2022/04/21 06:37:37;;;;;;;25.80;17.60;;;10.30;60.40;;;;;;5106887;28;20472;-59
2022/04/21 06:40:03;;;;;;;27.73;19.97;;;10.30;50.90;;;;;;5102824;28;21017;-58
2022/04/21 06:42:29;;;;;;;28.33;16.57;;;10.40;50.90;;;;;;5103766;28;20243;-58
2022/04/21 06:50:24;;;;;;;18.30;13.50;;;10.50;40.10;;;;;;5103889;28;20858;-59
2022/04/21 06:52:50;;;;;;;19.30;13.57;;;10.50;40.00;;;;;;5107078;28;20443;-58
2022/04/21 06:55:15;;;;;;;18.20;13.13;;;10.80;41.70;;;;;;5094258;28;20194;-58
2022/04/21 06:57:41;;;;;;;15.60;12.43;;;10.60;38.90;;;;;;5099200;28;20228;-58
2022/04/21 07:00:09;;;;;;;16.13;11.50;;;10.70;28.90;;;;;;5108528;28;20190;-59
2022/04/21 07:02:38;;;;;;;17.10;11.70;;;;;;;;;;5104789;27;20269;-59
2022/04/21 07:05:09;;;;;;;14.10;11.30;;;10.60;20.30;;;;;;5101674;28;20503;-58
2022/04/21 07:07:34;;;;;;;13.37;10.37;;;10.60;22.90;;;;;;5098272;28;20459;-59
2022/04/21 07:10:02;;;;;;;14.70;10.33;;;10.60;23.90;;;;;;5099748;28;21086;-58
2022/04/21 07:12:29;;;;;;;14.83;9.70;;;10.70;20.20;;;;;;5104973;28;20270;-57
2022/04/21 07:15:04;;;;;;;13.87;9.17;;;10.80;20.60;;;;;;5110043;28;20478;-60
2022/04/21 07:17:29;;;;;;;11.63;8.67;;;10.90;16.50;;;;;;5111786;28;20863;-59
2022/04/21 07:19:55;;;;;;;10.87;8.40;;;11.10;11.60;;;;;;5105796;28;20451;-58
2022/04/21 07:22:25;;;;;;;8.37;7.53;;;11.10;11.30;;;;;;5095885;28;20171;-58
2022/04/21 07:24:54;;;;;;;10.50;8.83;;;11.20;1.00;;;;;;5098535;28;20187;-58
2022/04/21 07:27:20;;;;;;;8.77;7.80;;;11.20;1.00;;;;;;5110792;28;20462;-58
2022/04/21 07:29:45;;;;;;;10.53;8.10;;;11.20;1.00;;;;;;5095994;28;20440;-58
2022/04/21 07:32:11;;;;;;;9.27;8.00;;;11.30;1.00;;;;;;5098558;28;20444;-59
2022/04/21 07:34:37;;;;;;;13.13;7.90;;;;;;;;;;5109104;28;20190;-57
2022/04/21 07:37:04;;;;;;;12.47;8.30;;;11.40;1.00;;;;;;5112551;28;20201;-59
2022/04/21 07:39:30;;;;;;;10.93;8.07;;;11.30;1.00;;;;;;5096511;28;20432;-57
2022/04/21 07:41:57;;;;;;;10.77;8.60;;;;;;;;;;5098095;28;20447;-59
2022/04/21 07:44:23;;;;;;;11.27;9.97;;;11.00;1.00;;;;;;5096701;28;20190;-59
2022/04/21 07:46:49;;;;;;;11.30;8.40;;;11.00;1.00;;;;;;5110172;28;20470;-59
2022/04/21 07:54:43;;;;;;;10.40;8.57;;;10.90;1.00;;;;;;5100310;28;20443;-58
2022/04/21 07:57:09;;;;;;;10.87;8.73;;;10.70;1.00;;;;;;5112317;28;20459;-59
2022/04/21 07:59:35;;;;;;;9.57;8.53;;;10.70;1.00;;;;;;5094105;28;20531;-58
2022/04/21 08:02:01;;;;;;;9.43;8.53;;;10.70;1.00;;;;;;5093522;28;20544;-59
2022/04/21 08:04:27;;;;;;;9.20;8.23;;;10.90;1.00;;;;;;5107025;28;20205;-58
2022/04/21 08:06:54;;;;;;;10.13;9.00;;;10.80;1.00;;;;;;5096184;28;20539;-57
2022/04/21 08:09:20;;;;;;;10.80;9.67;;;10.70;1.00;;;;;;5112611;28;20186;-58
2022/04/21 08:11:46;;;;;;;11.17;9.73;;;10.60;1.00;;;;;;5102670;28;20452;-59
2022/04/21 08:14:16;;;;;;;18.20;10.80;;;10.70;1.00;;;;;;5098105;28;20529;-59
2022/04/21 08:16:42;;;;;;;11.13;9.93;;;10.80;1.00;;;;;;5095609;28;20540;-59
2022/04/21 08:19:08;;;;;;;13.80;10.40;;;10.80;1.00;;;;;;5099122;28;20582;-59
2022/04/21 08:21:34;;;;;;;12.70;10.57;;;10.80;1.00;;;;;;5108093;28;20526;-59
2022/04/21 08:32:33;;;;;;;13.70;10.50;;;10.90;1.00;;;;;;5104900;28;20209;-62
2022/04/21 08:34:58;;;;;;;12.33;11.13;;;10.90;1.00;;;;;;5112254;28;20528;-59
2022/04/21 08:37:23;;;;;;;12.87;11.57;;;10.90;1.00;;;;;;5098696;28;20927;-60
2022/04/21 08:39:49;;;;;;;15.87;11.40;;;10.80;1.00;;;;;;5109093;28;20261;-60
2022/04/21 08:42:15;;;;;;;15.17;12.97;;;10.70;1.00;;;;;;5111400;28;20270;-58
2022/04/21 08:44:44;;;;;;;16.00;12.17;;;10.70;1.00;;;;;;5105971;28;20205;-59
2022/04/21 08:47:14;;;;;;;17.37;13.40;;;10.70;1.00;;;;;;5107475;28;20447;-62
2022/04/21 08:49:40;;;;;;;16.77;14.13;;;10.70;1.00;;;;;;5107534;28;20456;-58
2022/04/21 08:52:07;;;;;;;29.57;13.47;;;10.80;1.00;;;;;;5100283;28;20458;-58
2022/04/21 08:54:33;;;;;;;16.87;14.03;;;11.00;1.00;;;;;;5099781;28;20505;-58
2022/04/21 08:56:59;;;;;;;16.23;13.53;;;11.00;1.00;;;;;;5107367;28;20475;-59
2022/04/21 08:59:25;;;;;;;17.03;13.97;;;10.90;1.00;;;;;;5110912;28;20200;-58
2022/04/21 09:01:51;;;;;;;18.80;14.27;;;10.90;1.00;;;;;;5111120;28;20443;-58
2022/04/21 09:04:16;;;;;;;18.10;13.83;;;11.00;1.00;;;;;;5111162;28;20193;-59
2022/04/21 09:06:42;;;;;;;16.60;13.50;;;11.00;1.00;;;;;;5108228;28;20198;-60
2022/04/21 09:09:16;;;;;;;14.67;12.93;;;11.00;1.00;;;;;;5102479;28;20254;-59
2022/04/21 09:11:45;;;;;;;15.70;14.00;;;10.90;1.00;;;;;;5100770;28;20194;-59
2022/04/21 09:14:16;;;;;;;16.27;14.00;;;10.90;1.00;;;;;;5103558;28;20940;-59
2022/04/21 09:16:42;;;;;;;16.73;13.20;;;11.00;1.00;;;;;;5103812;28;20468;-58
2022/04/21 09:19:07;;;;;;;20.43;14.50;;;11.00;1.00;;;;;;5111323;28;20489;-58
2022/04/21 09:21:37;;;;;;;18.47;14.03;;;11.00;1.00;;;;;;5110794;28;20269;-58
2022/04/21 09:24:26;;;;;;;18.03;13.83;;;11.00;1.00;;;;;;5101068;28;20182;-58
2022/04/21 09:26:53;;;;;;;18.70;13.27;;;11.20;1.00;;;;;;5102975;28;20952;-59
2022/04/21 09:29:30;;;;;;;17.13;14.23;;;11.20;1.00;;;;;;5104324;28;20444;-59
2022/04/21 09:32:05;;;;;;;15.50;13.80;;;11.30;1.00;;;;;;5100011;28;20592;-58
2022/04/21 09:34:31;;;;;;;17.27;13.83;;;11.40;1.00;;;;;;5095951;28;20882;-60
2022/04/21 09:36:58;;;;;;;18.37;14.40;;;11.40;1.00;;;;;;5092837;28;20510;-60
2022/04/21 09:39:24;;;;;;;14.93;11.73;;;11.50;1.00;;;;;;5091215;28;20241;-58
2022/04/21 09:41:56;;;;;;;15.37;12.03;;;11.50;1.00;;;;;;5091005;28;20440;-60
2022/04/21 09:47:18;;;;;;;13.93;11.03;;;11.50;1.00;;;;;;5095081;28;20617;-59
2022/04/21 09:49:44;;;;;;;13.40;11.13;;;11.50;1.00;;;;;;5095311;28;20526;-58
2022/04/21 09:52:10;;;;;;;12.27;10.97;;;11.40;1.00;;;;;;5093353;28;20516;-59
2022/04/21 09:54:36;;;;;;;16.10;12.63;;;11.50;1.00;;;;;;5090964;28;20182;-59
2022/04/21 09:57:03;;;;;;;15.57;12.73;;;11.60;1.00;;;;;;5090910;28;20471;-60
2022/04/21 09:59:35;;;;;;;15.40;12.70;;;11.60;1.00;;;;;;5098030;28;20612;-59
2022/04/21 10:02:02;;;;;;;13.20;11.53;;;11.50;1.00;;;;;;5102486;28;20505;-60
2022/04/21 10:04:30;;;;;;;16.37;12.87;;;11.50;1.00;;;;;;5093582;28;20478;-60
2022/04/21 10:06:56;;;;;;;17.37;11.80;;;;;;;;;;5110385;28;20454;-67
2022/04/21 10:09:23;;;;;;;14.03;11.53;;;11.60;1.00;;;;;;5111602;28;20435;-59
2022/04/21 10:11:52;;;;;;;13.87;12.37;;;11.70;1.00;;;;;;5103647;28;20424;-59
2022/04/21 10:14:18;;;;;;;14.40;12.27;;;11.70;1.00;;;;;;5091758;28;20856;-60
2022/04/21 10:16:44;;;;;;;12.53;11.10;;;11.70;1.00;;;;;;5098967;28;20463;-60
2022/04/21 10:19:11;;;;;;;13.07;11.63;;;11.70;1.00;;;;;;5098357;28;20544;-59
2022/04/21 10:21:52;;;;;;;11.50;10.30;;;11.70;1.00;;;;;;5097316;28;20523;-58
2022/04/21 10:24:26;;;;;;;11.87;10.57;;;11.40;1.00;;;;;;5098078;28;20515;-59
2022/04/21 10:26:52;;;;;;;12.60;11.40;;;11.60;1.00;;;;;;5104517;28;20440;-58
2022/04/21 10:29:19;;;;;;;13.50;11.10;;;11.60;1.00;;;;;;5095275;28;20930;-59
2022/04/21 10:31:59;;;;;;;12.40;10.50;;;11.60;1.00;;;;;;5099917;28;20460;-60
2022/04/21 10:34:37;;;;;;;12.07;10.87;;;11.70;1.00;;;;;;5103546;28;20923;-59
2022/04/21 10:37:22;;;;;;;11.80;10.60;;;11.70;1.00;;;;;;5110325;28;20467;-60
2022/04/21 10:40:10;;;;;;;12.70;11.40;;;11.80;1.00;;;;;;5108285;28;20447;-59
2022/04/21 10:42:55;;;;;;;12.87;11.40;;;12.00;1.00;;;;;;5107730;28;20549;-61
2022/04/21 10:45:32;;;;;;;10.13;9.00;;;12.10;1.00;;;;;;5107583;28;21032;-59
2022/04/21 10:48:14;;;;;;;13.90;9.67;;;12.20;1.00;;;;;;5103839;28;20471;-60
2022/04/21 10:50:45;;;;;;;11.63;9.70;;;12.40;1.00;;;;;;5093789;28;20448;-59
2022/04/21 10:58:47;;;;;;;10.37;9.37;;;12.40;1.00;;;;;;5092521;28;20460;-59
2022/04/21 11:01:27;;;;;;;10.30;9.30;;;12.30;1.00;;;;;;5095944;28;20431;-59
2022/04/21 11:04:21;;;;;;;8.70;7.87;;;12.30;1.00;;;;;;5105781;28;20597;-60
2022/04/21 11:06:54;;;;;;;8.87;7.97;;;12.30;1.00;;;;;;5101869;28;20448;-59
2022/04/21 11:09:58;;;;;;;8.27;7.43;;;12.20;1.00;;;;;;5100223;28;20917;-59
2022/04/21 11:12:43;;;;;;;9.07;8.03;;;;;;;;;;5043911;28;21026;-59
2022/04/21 11:15:28;;;;;;;10.93;8.53;;;12.20;1.00;;;;;;5038146;28;21008;-59
2022/04/21 11:18:05;;;;;;;9.27;8.20;;;12.40;1.00;;;;;;5083854;28;20558;-59
2022/04/21 11:20:30;;;;;;;8.77;7.87;;;12.50;1.00;;;;;;5102945;28;20522;-60
2022/04/21 11:22:56;;;;;;;8.77;7.33;;;12.50;1.00;;;;;;5101972;28;20621;-59
2022/04/21 11:25:22;;;;;;;11.27;7.97;;;12.50;1.00;;;;;;5101850;28;20194;-59
2022/04/21 11:27:48;;;;;;;8.43;7.53;;;12.40;1.00;;;;;;5102287;28;20466;-59
2022/04/21 11:30:15;;;;;;;8.40;7.63;;;12.60;1.00;;;;;;5095091;28;20181;-58
2022/04/21 11:32:51;;;;;;;10.50;8.20;;;12.40;1.00;;;;;;5099877;28;20512;-58
2022/04/21 11:35:18;;;;;;;17.20;8.60;;;12.60;1.00;;;;;;5101900;28;21241;-58
2022/04/21 11:37:44;;;;;;;10.37;8.20;;;12.60;1.00;;;;;;5106067;28;20771;-59
2022/04/21 11:40:20;;;;;;;9.73;8.70;;;12.70;1.00;;;;;;5109554;28;20450;-58
2022/04/21 11:42:47;;;;;;;12.47;9.37;;;12.80;1.00;;;;;;5108706;28;20189;-60
2022/04/21 11:45:18;;;;;;;12.00;10.10;;;12.80;1.00;;;;;;5103390;28;20539;-58
2022/04/21 11:47:44;;;;;;;12.30;10.27;;;12.70;1.00;;;;;;5096419;28;20479;-59
2022/04/21 11:50:10;;;;;;;12.83;11.03;;;12.90;1.00;;;;;;5097198;28;20968;-60
2022/04/21 11:52:36;;;;;;;12.03;9.60;;;12.50;1.00;;;;;;5100142;28;20281;-59
2022/04/21 11:55:03;;;;;;;9.87;8.83;;;12.50;1.00;;;;;;5108696;28;20632;-58
2022/04/21 11:57:58;;;;;;;11.80;10.30;;;12.40;1.00;;;;;;5106921;28;20224;-58
2022/04/21 12:08:46;;;;;;;10.93;9.83;;;12.30;1.00;;;;;;5093548;28;20444;-60
2022/04/21 12:11:14;;;;;;;13.10;10.43;;;12.30;1.00;;;;;;5093324;28;20440;-59
2022/04/21 12:13:42;;;;;;;9.10;8.07;;;12.00;1.00;;;;;;5093190;28;20436;-58
2022/04/21 12:16:38;;;;;;;9.77;8.80;;;12.00;1.00;;;;;;5093151;28;20472;-59
2022/04/21 12:19:28;;;;;;;7.77;6.73;;;12.10;1.00;;;;;;5092753;28;20508;-59
2022/04/21 12:21:59;;;;;;;8.93;7.97;;;12.20;1.00;;;;;;5093069;28;20428;-59
2022/04/21 12:24:33;;;;;;;6.70;5.90;;;12.20;1.00;;;;;;5095045;28;22143;-58
2022/04/21 12:27:01;;;;;;;7.20;6.50;;;12.50;1.00;;;;;;5092750;28;20493;-60
2022/04/21 12:29:29;;;;;;;8.20;6.93;;;;;;;;;;5096283;28;21205;-59
2022/04/21 12:32:01;;;;;;;7.23;6.53;;;12.70;1.00;;;;;;5109632;28;20428;-58
2022/04/21 12:34:30;;;;;;;7.53;6.77;;;12.70;1.00;;;;;;5092669;28;20415;-60
2022/04/21 12:37:01;;;;;;;7.93;6.80;;;12.80;1.00;;;;;;5098328;28;20459;-59
2022/04/21 12:39:28;;;;;;;7.83;7.03;;;12.80;1.00;;;;;;5107885;28;20777;-58
2022/04/21 12:41:55;;;;;;;9.20;6.43;;;12.90;1.00;;;;;;5113058;28;20489;-59
2022/04/21 12:44:24;;;;;;;8.40;7.07;;;13.20;1.00;;;;;;5112948;28;20978;-58
2022/04/21 12:47:18;;;;;;;8.80;7.70;;;13.20;1.00;;;;;;5113146;28;20435;-59
2022/04/21 12:50:06;;;;;;;6.50;5.83;;;13.50;1.00;;;;;;5109831;28;20439;-58
2022/04/21 12:52:41;;;;;;;7.80;6.93;;;13.60;1.00;;;;;;5112744;28;20435;-59
2022/04/21 12:55:20;;;;;;;7.80;7.00;;;13.60;1.00;;;;;;5112574;28;20451;-59
2022/04/21 12:58:06;;;;;;;6.90;6.20;;;13.70;1.00;;;;;;5105766;28;20492;-60
2022/04/21 13:00:33;;;;;;;8.60;7.43;;;13.80;1.00;;;;;;5092337;28;20504;-59
2022/04/21 13:03:04;;;;;;;8.20;7.40;;;13.90;1.00;;;;;;5093308;28;20512;-60
2022/04/21 13:05:30;;;;;;;8.73;7.47;;;14.30;1.00;;;;;;5105246;28;20910;-58
2022/04/21 13:07:56;;;;;;;12.50;7.50;;;14.40;1.00;;;;;;5112690;28;20441;-58
2022/04/21 13:10:22;;;;;;;10.37;7.83;;;;;;;;;;5112494;28;20198;-59
2022/04/21 13:12:49;;;;;;;8.93;7.10;;;14.00;1.00;;;;;;5112289;28;20455;-59
2022/04/21 13:15:14;;;;;;;9.40;7.40;;;13.90;1.00;;;;;;5095103;28;20448;-59
2022/04/21 13:17:40;;;;;;;11.33;9.13;;;;;;;;;;5095071;28;20483;-58
2022/04/21 13:20:07;;;;;;;11.60;7.80;;;13.50;1.00;;;;;;5091855;28;20191;-59
2022/04/21 13:22:33;;;;;;;10.73;8.23;;;13.50;1.00;;;;;;5091915;28;20456;-58
2022/04/21 13:24:58;;;;;;;9.80;7.40;;;13.20;1.00;;;;;;5091774;28;20830;-58
2022/04/21 13:27:26;;;;;;;7.23;6.53;;;13.10;1.00;;;;;;5091458;28;20191;-59
2022/04/21 13:29:53;;;;;;;8.90;7.90;;;12.90;1.00;;;;;;5091435;28;20213;-59
2022/04/21 13:35:04;;;;;;;10.53;7.60;;;12.70;1.00;;;;;;5103014;28;20444;-59
2022/04/21 13:37:30;;;;;;;8.87;7.60;;;12.60;1.00;;;;;;5107580;28;20469;-58
2022/04/21 13:39:55;;;;;;;10.63;8.67;;;12.60;1.00;;;;;;5111363;28;20952;-58
2022/04/21 13:42:21;;;;;;;9.80;8.37;;;12.50;1.00;;;;;;5111435;28;20186;-58
2022/04/21 13:44:46;;;;;;;9.13;8.20;;;12.60;1.00;;;;;;5111170;28;20177;-59
2022/04/21 13:47:12;;;;;;;10.63;7.83;;;12.70;1.00;;;;;;5111052;28;20209;-59
2022/04/21 13:49:38;;;;;;;13.07;8.43;;;12.70;1.00;;;;;;5110762;28;20200;-60
2022/04/21 13:52:04;;;;;;;10.13;7.90;;;12.90;1.00;;;;;;5111581;28;20213;-58
2022/04/21 13:54:29;;;;;;;9.90;7.90;;;12.90;1.00;;;;;;5111300;28;20444;-59